sensor_id;sensor_type;location;lat;lon;timestamp;temperature;humidity
21255;DHT22;10785;50.674;17.954;2022-10-04T00:02:21;11.00;1.00
21255;DHT22;10785;50.674;17.954;2022-10-04T00:04:56;11.00;1.00
21255;DHT22;10785;50.674;17.954;2022-10-04T00:07:32;11.10;1.00
21255;DHT22;10785;50.674;17.954;2022-10-04T00:10:06;11.10;1.00
21255;DHT22;10785;50.674;17.954;2022-10-04T00:12:47;11.10;99.90
21255;DHT22;10785;50.674;17.954;2022-10-04T00:15:22;11.10;99.90
21255;DHT22;10785;50.674;17.954;2022-10-04T00:18:06;11.10;99.90
21255;DHT22;10785;50.674;17.954;2022-10-04T00:20:59;11.00;1.00
21255;DHT22;10785;50.674;17.954;2022-10-04T00:23:41;11.00;1.00
21255;DHT22;10785;50.674;17.954;2022-10-04T00:29:22;11.00;1.00
21255;DHT22;10785;50.674;17.954;2022-10-04T00:32:24;11.00;1.00
21255;DHT22;10785;50.674;17.954;2022-10-04T00:34:55;11.00;1.00
21255;DHT22;10785;50.674;17.954;2022-10-04T00:37:26;11.00;1.00
21255;DHT22;10785;50.674;17.954;2022-10-04T00:39:58;11.00;1.00
21255;DHT22;10785;50.674;17.954;2022-10-04T00:42:43;10.90;1.00
21255;DHT22;10785;50.674;17.954;2022-10-04T00:48:26;11.00;1.00
21255;DHT22;10785;50.674;17.954;2022-10-04T00:51:01;11.00;1.00
21255;DHT22;10785;50.674;17.954;2022-10-04T00:53:47;11.00;1.00
21255;DHT22;10785;50.674;17.954;2022-10-04T00:56:24;11.00;1.00
21255;DHT22;10785;50.674;17.954;2022-10-04T00:59:12;11.00;1.00
21255;DHT22;10785;50.674;17.954;2022-10-04T01:01:46;11.00;1.00
21255;DHT22;10785;50.674;17.954;2022-10-04T01:04:26;11.00;1.00
21255;DHT22;10785;50.674;17.954;2022-10-04T01:06:57;11.00;1.00
21255;DHT22;10785;50.674;17.954;2022-10-04T01:09:29;11.00;1.00
21255;DHT22;10785;50.674;17.954;2022-10-04T01:12:02;11.00;1.00
21255;DHT22;10785;50.674;17.954;2022-10-04T01:14:40;11.10;1.00
21255;DHT22;10785;50.674;17.954;2022-10-04T01:17:12;11.00;1.00
21255;DHT22;10785;50.674;17.954;2022-10-04T01:19:49;11.10;1.00
21255;DHT22;10785;50.674;17.954;2022-10-04T01:22:41;11.10;1.00
21255;DHT22;10785;50.674;17.954;2022-10-04T01:25:43;11.10;1.00
21255;DHT22;10785;50.674;17.954;2022-10-04T01:28:13;11.10;1.00
21255;DHT22;10785;50.674;17.954;2022-10-04T01:30:43;11.10;1.00
21255;DHT22;10785;50.674;17.954;2022-10-04T01:33:12;11.10;1.00
21255;DHT22;10785;50.674;17.954;2022-10-04T01:35:40;11.00;1.00
21255;DHT22;10785;50.674;17.954;2022-10-04T01:38:10;11.20;1.00
21255;DHT22;10785;50.674;17.954;2022-10-04T01:40:44;11.10;1.00
21255;DHT22;10785;50.674;17.954;2022-10-04T01:43:16;11.10;1.00
21255;DHT22;10785;50.674;17.954;2022-10-04T01:45:52;11.10;1.00
21255;DHT22;10785;50.674;17.954;2022-10-04T01:48:28;11.10;1.00
21255;DHT22;10785;50.674;17.954;2022-10-04T01:51:00;11.10;1.00
21255;DHT22;10785;50.674;17.954;2022-10-04T01:53:34;11.10;1.00
21255;DHT22;10785;50.674;17.954;2022-10-04T01:56:11;11.10;1.00
21255;DHT22;10785;50.674;17.954;2022-10-04T01:58:44;11.10;1.00
21255;DHT22;10785;50.674;17.954;2022-10-04T02:01:16;11.10;1.00
21255;DHT22;10785;50.674;17.954;2022-10-04T02:03:52;11.10;1.00
21255;DHT22;10785;50.674;17.954;2022-10-04T02:06:23;11.10;1.00
21255;DHT22;10785;50.674;17.954;2022-10-04T02:08:54;11.10;1.00
21255;DHT22;10785;50.674;17.954;2022-10-04T02:11:27;11.10;1.00
21255;DHT22;10785;50.674;17.954;2022-10-04T02:13:57;11.10;1.00
21255;DHT22;10785;50.674;17.954;2022-10-04T02:16:26;11.10;1.00
21255;DHT22;10785;50.674;17.954;2022-10-04T02:18:55;11.00;1.00
21255;DHT22;10785;50.674;17.954;2022-10-04T02:21:25;11.00;1.00
21255;DHT22;10785;50.674;17.954;2022-10-04T02:23:55;11.00;1.00
21255;DHT22;10785;50.674;17.954;2022-10-04T02:26:23;11.00;1.00
21255;DHT22;10785;50.674;17.954;2022-10-04T02:28:53;11.00;1.00
21255;DHT22;10785;50.674;17.954;2022-10-04T02:31:22;10.90;1.00
21255;DHT22;10785;50.674;17.954;2022-10-04T02:34:10;10.90;1.00
21255;DHT22;10785;50.674;17.954;2022-10-04T02:36:39;10.90;1.00
21255;DHT22;10785;50.674;17.954;2022-10-04T02:39:14;10.90;99.90
21255;DHT22;10785;50.674;17.954;2022-10-04T02:41:48;10.90;99.90
21255;DHT22;10785;50.674;17.954;2022-10-04T02:44:21;11.00;99.90
21255;DHT22;10785;50.674;17.954;2022-10-04T02:46:56;10.90;99.90
21255;DHT22;10785;50.674;17.954;2022-10-04T02:49:34;11.00;99.90
21255;DHT22;10785;50.674;17.954;2022-10-04T02:52:07;10.90;99.90
21255;DHT22;10785;50.674;17.954;2022-10-04T02:54:43;10.90;99.90
21255;DHT22;10785;50.674;17.954;2022-10-04T02:57:15;10.90;99.90
21255;DHT22;10785;50.674;17.954;2022-10-04T02:59:46;10.90;99.90
21255;DHT22;10785;50.674;17.954;2022-10-04T03:02:24;10.90;99.90
21255;DHT22;10785;50.674;17.954;2022-10-04T03:04:59;10.90;99.90
21255;DHT22;10785;50.674;17.954;2022-10-04T03:07:31;10.90;99.90
21255;DHT22;10785;50.674;17.954;2022-10-04T03:10:05;10.90;1.00
21255;DHT22;10785;50.674;17.954;2022-10-04T03:12:36;10.90;99.90
21255;DHT22;10785;50.674;17.954;2022-10-04T03:15:07;10.80;99.90
21255;DHT22;10785;50.674;17.954;2022-10-04T03:17:38;10.80;99.90
21255;DHT22;10785;50.674;17.954;2022-10-04T03:20:08;10.80;1.00
21255;DHT22;10785;50.674;17.954;2022-10-04T03:22:39;10.80;1.00
21255;DHT22;10785;50.674;17.954;2022-10-04T03:25:17;10.80;1.00
21255;DHT22;10785;50.674;17.954;2022-10-04T03:27:49;10.80;1.00
21255;DHT22;10785;50.674;17.954;2022-10-04T03:30:18;10.80;1.00
21255;DHT22;10785;50.674;17.954;2022-10-04T03:32:48;10.80;1.00
21255;DHT22;10785;50.674;17.954;2022-10-04T03:35:28;10.70;1.00
21255;DHT22;10785;50.674;17.954;2022-10-04T03:37:58;10.70;1.00
21255;DHT22;10785;50.674;17.954;2022-10-04T03:40:32;10.70;1.00
21255;DHT22;10785;50.674;17.954;2022-10-04T03:43:02;10.70;1.00
21255;DHT22;10785;50.674;17.954;2022-10-04T03:45:32;10.70;1.00
21255;DHT22;10785;50.674;17.954;2022-10-04T03:48:04;10.70;1.00
21255;DHT22;10785;50.674;17.954;2022-10-04T03:50:37;10.70;1.00
21255;DHT22;10785;50.674;17.954;2022-10-04T03:53:11;10.70;1.00
21255;DHT22;10785;50.674;17.954;2022-10-04T03:55:43;10.70;1.00
21255;DHT22;10785;50.674;17.954;2022-10-04T03:58:14;10.70;33.60
21255;DHT22;10785;50.674;17.954;2022-10-04T04:03:37;10.60;99.90
21255;DHT22;10785;50.674;17.954;2022-10-04T04:06:14;10.60;99.90
21255;DHT22;10785;50.674;17.954;2022-10-04T04:08:46;10.50;99.90
21255;DHT22;10785;50.674;17.954;2022-10-04T04:11:21;10.40;99.90
21255;DHT22;10785;50.674;17.954;2022-10-04T04:13:56;10.40;1.00
21255;DHT22;10785;50.674;17.954;2022-10-04T04:16:27;10.30;1.00
21255;DHT22;10785;50.674;17.954;2022-10-04T04:19:00;10.30;1.00
21255;DHT22;10785;50.674;17.954;2022-10-04T04:21:31;10.20;1.00
21255;DHT22;10785;50.674;17.954;2022-10-04T04:24:02;10.20;1.00
21255;DHT22;10785;50.674;17.954;2022-10-04T04:26:36;10.20;1.00
21255;DHT22;10785;50.674;17.954;2022-10-04T04:29:10;10.20;1.00
21255;DHT22;10785;50.674;17.954;2022-10-04T04:31:43;10.20;1.00
21255;DHT22;10785;50.674;17.954;2022-10-04T04:34:17;10.20;1.00
21255;DHT22;10785;50.674;17.954;2022-10-04T04:36:46;10.20;1.00
21255;DHT22;10785;50.674;17.954;2022-10-04T04:39:16;10.20;1.00
21255;DHT22;10785;50.674;17.954;2022-10-04T04:42:10;10.20;1.00
21255;DHT22;10785;50.674;17.954;2022-10-04T04:44:45;10.20;1.00
21255;DHT22;10785;50.674;17.954;2022-10-04T04:47:26;10.10;1.00
21255;DHT22;10785;50.674;17.954;2022-10-04T04:49:57;10.20;1.00
21255;DHT22;10785;50.674;17.954;2022-10-04T04:52:30;10.10;1.00
21255;DHT22;10785;50.674;17.954;2022-10-04T04:55:00;10.20;1.00
21255;DHT22;10785;50.674;17.954;2022-10-04T04:57:31;10.20;1.00
21255;DHT22;10785;50.674;17.954;2022-10-04T05:00:01;10.20;2.70
21255;DHT22;10785;50.674;17.954;2022-10-04T05:02:32;10.20;1.00
21255;DHT22;10785;50.674;17.954;2022-10-04T05:05:16;10.20;1.00
21255;DHT22;10785;50.674;17.954;2022-10-04T05:07:45;10.20;1.00
21255;DHT22;10785;50.674;17.954;2022-10-04T05:10:28;10.20;1.00
21255;DHT22;10785;50.674;17.954;2022-10-04T05:13:01;10.20;1.00
21255;DHT22;10785;50.674;17.954;2022-10-04T05:15:33;10.30;1.00
21255;DHT22;10785;50.674;17.954;2022-10-04T05:18:13;10.30;1.00
21255;DHT22;10785;50.674;17.954;2022-10-04T05:20:48;10.30;99.90
21255;DHT22;10785;50.674;17.954;2022-10-04T05:23:17;10.30;99.90
21255;DHT22;10785;50.674;17.954;2022-10-04T05:25:46;10.40;99.90
21255;DHT22;10785;50.674;17.954;2022-10-04T05:28:17;10.40;99.90
21255;DHT22;10785;50.674;17.954;2022-10-04T05:31:00;10.40;99.90
21255;DHT22;10785;50.674;17.954;2022-10-04T05:33:37;10.40;99.90
21255;DHT22;10785;50.674;17.954;2022-10-04T05:36:44;10.60;99.90
21255;DHT22;10785;50.674;17.954;2022-10-04T05:39:21;10.70;1.00
21255;DHT22;10785;50.674;17.954;2022-10-04T05:41:56;10.70;1.00
21255;DHT22;10785;50.674;17.954;2022-10-04T05:44:34;10.70;1.00
21255;DHT22;10785;50.674;17.954;2022-10-04T05:47:06;10.70;1.00
21255;DHT22;10785;50.674;17.954;2022-10-04T05:49:41;10.70;99.90
21255;DHT22;10785;50.674;17.954;2022-10-04T05:52:15;10.70;99.90
21255;DHT22;10785;50.674;17.954;2022-10-04T05:55:20;10.70;99.90
21255;DHT22;10785;50.674;17.954;2022-10-04T06:01:00;10.80;99.90
21255;DHT22;10785;50.674;17.954;2022-10-04T06:03:46;10.80;99.90
21255;DHT22;10785;50.674;17.954;2022-10-04T06:06:22;10.90;94.80
21255;DHT22;10785;50.674;17.954;2022-10-04T06:09:04;10.80;68.20
21255;DHT22;10785;50.674;17.954;2022-10-04T06:11:49;10.70;44.10
21255;DHT22;10785;50.674;17.954;2022-10-04T06:14:36;10.70;99.90
21255;DHT22;10785;50.674;17.954;2022-10-04T06:17:35;10.70;99.90
21255;DHT22;10785;50.674;17.954;2022-10-04T06:20:24;10.70;99.90
21255;DHT22;10785;50.674;17.954;2022-10-04T06:22:59;10.70;99.90
21255;DHT22;10785;50.674;17.954;2022-10-04T06:25:30;10.90;99.90
21255;DHT22;10785;50.674;17.954;2022-10-04T06:28:12;11.00;21.60
21255;DHT22;10785;50.674;17.954;2022-10-04T06:37:10;11.30;1.00
21255;DHT22;10785;50.674;17.954;2022-10-04T06:39:59;11.30;1.00
21255;DHT22;10785;50.674;17.954;2022-10-04T06:42:53;11.30;1.00
21255;DHT22;10785;50.674;17.954;2022-10-04T06:45:44;11.30;1.00
21255;DHT22;10785;50.674;17.954;2022-10-04T06:48:31;11.20;1.00
21255;DHT22;10785;50.674;17.954;2022-10-04T06:51:11;11.20;1.00
21255;DHT22;10785;50.674;17.954;2022-10-04T06:53:54;11.20;1.00
21255;DHT22;10785;50.674;17.954;2022-10-04T06:56:44;11.20;1.00
21255;DHT22;10785;50.674;17.954;2022-10-04T06:59:35;11.30;1.00
21255;DHT22;10785;50.674;17.954;2022-10-04T07:02:15;11.20;1.00
21255;DHT22;10785;50.674;17.954;2022-10-04T07:04:49;11.30;1.00
21255;DHT22;10785;50.674;17.954;2022-10-04T07:07:39;11.30;1.00
21255;DHT22;10785;50.674;17.954;2022-10-04T07:10:24;11.40;1.00
21255;DHT22;10785;50.674;17.954;2022-10-04T07:13:05;11.40;99.90
21255;DHT22;10785;50.674;17.954;2022-10-04T07:15:45;11.50;99.90
21255;DHT22;10785;50.674;17.954;2022-10-04T07:18:21;11.50;99.90
21255;DHT22;10785;50.674;17.954;2022-10-04T07:20:58;11.60;92.10
21255;DHT22;10785;50.674;17.954;2022-10-04T07:23:34;11.70;1.00
21255;DHT22;10785;50.674;17.954;2022-10-04T07:26:06;11.70;1.00
21255;DHT22;10785;50.674;17.954;2022-10-04T07:28:43;11.80;1.00
21255;DHT22;10785;50.674;17.954;2022-10-04T07:31:32;11.90;1.00
21255;DHT22;10785;50.674;17.954;2022-10-04T07:34:08;12.00;1.00
21255;DHT22;10785;50.674;17.954;2022-10-04T07:36:43;12.00;1.00
21255;DHT22;10785;50.674;17.954;2022-10-04T07:39:17;11.90;1.00
21255;DHT22;10785;50.674;17.954;2022-10-04T07:41:51;11.90;1.00
21255;DHT22;10785;50.674;17.954;2022-10-04T07:44:32;11.90;1.00
21255;DHT22;10785;50.674;17.954;2022-10-04T07:47:08;11.80;1.00
21255;DHT22;10785;50.674;17.954;2022-10-04T07:49:41;12.00;1.00
21255;DHT22;10785;50.674;17.954;2022-10-04T07:52:28;12.20;1.00
21255;DHT22;10785;50.674;17.954;2022-10-04T07:55:07;12.30;1.00
21255;DHT22;10785;50.674;17.954;2022-10-04T07:57:45;12.30;1.00
21255;DHT22;10785;50.674;17.954;2022-10-04T08:00:19;12.30;1.00
21255;DHT22;10785;50.674;17.954;2022-10-04T08:03:04;12.30;1.00
21255;DHT22;10785;50.674;17.954;2022-10-04T08:05:40;12.30;1.00
21255;DHT22;10785;50.674;17.954;2022-10-04T08:08:25;12.20;1.00
21255;DHT22;10785;50.674;17.954;2022-10-04T08:11:11;12.30;1.00
21255;DHT22;10785;50.674;17.954;2022-10-04T08:13:51;12.30;1.00
21255;DHT22;10785;50.674;17.954;2022-10-04T08:16:33;12.40;1.00
21255;DHT22;10785;50.674;17.954;2022-10-04T08:19:23;12.30;1.00
21255;DHT22;10785;50.674;17.954;2022-10-04T08:22:00;12.40;1.00
21255;DHT22;10785;50.674;17.954;2022-10-04T08:24:34;12.40;1.00
21255;DHT22;10785;50.674;17.954;2022-10-04T08:27:21;12.50;1.00
21255;DHT22;10785;50.674;17.954;2022-10-04T08:30:04;12.60;1.00
21255;DHT22;10785;50.674;17.954;2022-10-04T08:32:51;12.80;1.00
21255;DHT22;10785;50.674;17.954;2022-10-04T08:35:36;12.90;1.00
21255;DHT22;10785;50.674;17.954;2022-10-04T08:38:41;12.90;1.00
21255;DHT22;10785;50.674;17.954;2022-10-04T08:48:21;12.80;1.00
21255;DHT22;10785;50.674;17.954;2022-10-04T08:54:42;13.00;1.00
21255;DHT22;10785;50.674;17.954;2022-10-04T09:00:34;13.10;1.00
21255;DHT22;10785;50.674;17.954;2022-10-04T09:03:27;13.20;1.00
21255;DHT22;10785;50.674;17.954;2022-10-04T09:06:30;13.40;1.00
21255;DHT22;10785;50.674;17.954;2022-10-04T09:15:37;13.20;1.00
21255;DHT22;10785;50.674;17.954;2022-10-04T09:18:32;13.30;1.00
21255;DHT22;10785;50.674;17.954;2022-10-04T09:21:09;13.40;1.00
21255;DHT22;10785;50.674;17.954;2022-10-04T09:24:03;13.50;1.00
21255;DHT22;10785;50.674;17.954;2022-10-04T09:26:42;13.50;1.00
21255;DHT22;10785;50.674;17.954;2022-10-04T09:29:30;13.80;1.00
21255;DHT22;10785;50.674;17.954;2022-10-04T09:35:25;13.60;99.90
21255;DHT22;10785;50.674;17.954;2022-10-04T09:38:09;13.90;99.90
21255;DHT22;10785;50.674;17.954;2022-10-04T09:40:56;14.00;1.00
21255;DHT22;10785;50.674;17.954;2022-10-04T09:46:54;13.90;1.00
21255;DHT22;10785;50.674;17.954;2022-10-04T09:49:49;13.90;1.00
21255;DHT22;10785;50.674;17.954;2022-10-04T09:52:35;14.00;99.90
21255;DHT22;10785;50.674;17.954;2022-10-04T09:55:23;13.90;99.90
21255;DHT22;10785;50.674;17.954;2022-10-04T09:58:19;13.90;1.00
21255;DHT22;10785;50.674;17.954;2022-10-04T10:00:58;14.00;1.00
21255;DHT22;10785;50.674;17.954;2022-10-04T10:06:55;14.20;99.90
21255;DHT22;10785;50.674;17.954;2022-10-04T10:09:37;14.10;99.90
21255;DHT22;10785;50.674;17.954;2022-10-04T10:12:53;14.30;99.90
21255;DHT22;10785;50.674;17.954;2022-10-04T10:15:53;14.50;99.90
21255;DHT22;10785;50.674;17.954;2022-10-04T10:18:33;14.60;99.90
21255;DHT22;10785;50.674;17.954;2022-10-04T10:24:50;14.50;60.60
21255;DHT22;10785;50.674;17.954;2022-10-04T10:27:37;14.40;27.60
21255;DHT22;10785;50.674;17.954;2022-10-04T10:30:24;14.40;11.90
21255;DHT22;10785;50.674;17.954;2022-10-04T10:33:26;14.30;22.40
21255;DHT22;10785;50.674;17.954;2022-10-04T10:36:22;14.40;99.90
21255;DHT22;10785;50.674;17.954;2022-10-04T10:39:18;14.60;86.10
21255;DHT22;10785;50.674;17.954;2022-10-04T10:42:07;14.60;99.90
21255;DHT22;10785;50.674;17.954;2022-10-04T10:44:56;15.00;15.10
21255;DHT22;10785;50.674;17.954;2022-10-04T10:47:40;14.90;57.80
21255;DHT22;10785;50.674;17.954;2022-10-04T10:50:32;14.80;86.30
21255;DHT22;10785;50.674;17.954;2022-10-04T10:53:57;14.60;99.20
21255;DHT22;10785;50.674;17.954;2022-10-04T10:56:45;14.60;99.90
21255;DHT22;10785;50.674;17.954;2022-10-04T11:02:42;14.60;99.90
21255;DHT22;10785;50.674;17.954;2022-10-04T11:08:48;14.80;83.10
21255;DHT22;10785;50.674;17.954;2022-10-04T11:15:03;15.00;57.20
21255;DHT22;10785;50.674;17.954;2022-10-04T11:24:31;15.00;1.00
21255;DHT22;10785;50.674;17.954;2022-10-04T11:27:20;15.20;1.00
21255;DHT22;10785;50.674;17.954;2022-10-04T11:30:07;15.10;38.00
21255;DHT22;10785;50.674;17.954;2022-10-04T11:33:27;15.10;1.00
21255;DHT22;10785;50.674;17.954;2022-10-04T11:39:13;15.40;30.30
21255;DHT22;10785;50.674;17.954;2022-10-04T11:41:50;15.10;1.00
21255;DHT22;10785;50.674;17.954;2022-10-04T11:44:44;15.00;2.40
21255;DHT22;10785;50.674;17.954;2022-10-04T11:47:28;15.30;1.00
21255;DHT22;10785;50.674;17.954;2022-10-04T11:50:22;15.40;1.00
21255;DHT22;10785;50.674;17.954;2022-10-04T11:56:39;15.70;1.00
21255;DHT22;10785;50.674;17.954;2022-10-04T11:59:23;15.70;1.00
21255;DHT22;10785;50.674;17.954;2022-10-04T12:02:21;15.40;1.00
21255;DHT22;10785;50.674;17.954;2022-10-04T12:05:22;15.10;1.00
21255;DHT22;10785;50.674;17.954;2022-10-04T12:08:10;15.10;1.00
21255;DHT22;10785;50.674;17.954;2022-10-04T12:10:45;15.10;1.00
21255;DHT22;10785;50.674;17.954;2022-10-04T12:13:31;14.90;1.00
21255;DHT22;10785;50.674;17.954;2022-10-04T12:22:17;14.50;1.00
21255;DHT22;10785;50.674;17.954;2022-10-04T12:28:11;14.50;1.00
21255;DHT22;10785;50.674;17.954;2022-10-04T12:31:06;14.70;1.00
21255;DHT22;10785;50.674;17.954;2022-10-04T12:33:43;14.90;1.00
21255;DHT22;10785;50.674;17.954;2022-10-04T12:36:29;15.10;1.00
21255;DHT22;10785;50.674;17.954;2022-10-04T12:42:13;15.50;1.00
21255;DHT22;10785;50.674;17.954;2022-10-04T12:45:02;15.70;1.00
21255;DHT22;10785;50.674;17.954;2022-10-04T12:47:49;15.90;1.00
21255;DHT22;10785;50.674;17.954;2022-10-04T12:50:34;15.90;1.00
21255;DHT22;10785;50.674;17.954;2022-10-04T12:53:19;15.70;1.00
21255;DHT22;10785;50.674;17.954;2022-10-04T12:56:05;15.60;1.00
21255;DHT22;10785;50.674;17.954;2022-10-04T12:58:49;15.50;1.00
21255;DHT22;10785;50.674;17.954;2022-10-04T13:01:25;15.40;1.00
21255;DHT22;10785;50.674;17.954;2022-10-04T13:07:04;15.20;1.00
21255;DHT22;10785;50.674;17.954;2022-10-04T13:09:45;15.10;1.00
21255;DHT22;10785;50.674;17.954;2022-10-04T13:12:55;15.10;1.00
21255;DHT22;10785;50.674;17.954;2022-10-04T13:15:34;15.10;1.00
21255;DHT22;10785;50.674;17.954;2022-10-04T13:18:30;15.30;1.00
21255;DHT22;10785;50.674;17.954;2022-10-04T13:21:04;15.30;1.00
21255;DHT22;10785;50.674;17.954;2022-10-04T13:23:45;15.40;1.00
21255;DHT22;10785;50.674;17.954;2022-10-04T13:26:26;15.70;1.00
21255;DHT22;10785;50.674;17.954;2022-10-04T13:29:02;15.80;1.00
21255;DHT22;10785;50.674;17.954;2022-10-04T13:31:36;15.80;1.00
21255;DHT22;10785;50.674;17.954;2022-10-04T13:34:15;15.60;1.00
21255;DHT22;10785;50.674;17.954;2022-10-04T13:36:58;15.50;1.00
21255;DHT22;10785;50.674;17.954;2022-10-04T13:39:50;15.30;1.00
21255;DHT22;10785;50.674;17.954;2022-10-04T13:42:35;15.20;1.00
21255;DHT22;10785;50.674;17.954;2022-10-04T13:45:22;15.30;63.50
21255;DHT22;10785;50.674;17.954;2022-10-04T13:48:10;15.30;1.00
21255;DHT22;10785;50.674;17.954;2022-10-04T13:51:02;15.40;1.00
21255;DHT22;10785;50.674;17.954;2022-10-04T13:53:42;15.40;1.00
21255;DHT22;10785;50.674;17.954;2022-10-04T13:56:55;15.50;1.00
21255;DHT22;10785;50.674;17.954;2022-10-04T13:59:33;15.70;1.00
21255;DHT22;10785;50.674;17.954;2022-10-04T14:21:16;15.80;1.00
21255;DHT22;10785;50.674;17.954;2022-10-04T14:30:04;15.90;1.00
21255;DHT22;10785;50.674;17.954;2022-10-04T14:33:08;15.80;1.00
21255;DHT22;10785;50.674;17.954;2022-10-04T14:35:44;15.80;1.00
21255;DHT22;10785;50.674;17.954;2022-10-04T14:38:40;15.90;1.00
21255;DHT22;10785;50.674;17.954;2022-10-04T14:45:02;15.50;1.00
21255;DHT22;10785;50.674;17.954;2022-10-04T14:48:04;15.20;1.00
21255;DHT22;10785;50.674;17.954;2022-10-04T14:50:48;15.10;1.00
21255;DHT22;10785;50.674;17.954;2022-10-04T14:53:31;15.00;1.00
21255;DHT22;10785;50.674;17.954;2022-10-04T14:56:22;14.90;1.00
21255;DHT22;10785;50.674;17.954;2022-10-04T14:59:06;14.80;1.00
21255;DHT22;10785;50.674;17.954;2022-10-04T15:01:38;14.70;1.00
21255;DHT22;10785;50.674;17.954;2022-10-04T15:04:26;14.60;1.00
21255;DHT22;10785;50.674;17.954;2022-10-04T15:07:01;14.60;1.00
21255;DHT22;10785;50.674;17.954;2022-10-04T15:09:51;14.50;1.00
21255;DHT22;10785;50.674;17.954;2022-10-04T15:12:40;14.50;1.00
21255;DHT22;10785;50.674;17.954;2022-10-04T15:15:59;14.40;1.00
21255;DHT22;10785;50.674;17.954;2022-10-04T15:18:52;14.50;1.00
21255;DHT22;10785;50.674;17.954;2022-10-04T15:21:43;14.50;1.00
21255;DHT22;10785;50.674;17.954;2022-10-04T15:24:23;14.40;1.00
21255;DHT22;10785;50.674;17.954;2022-10-04T15:30:08;14.40;1.00
21255;DHT22;10785;50.674;17.954;2022-10-04T15:32:43;14.40;1.00
21255;DHT22;10785;50.674;17.954;2022-10-04T15:35:22;14.30;1.00
21255;DHT22;10785;50.674;17.954;2022-10-04T15:38:05;14.30;1.00
21255;DHT22;10785;50.674;17.954;2022-10-04T15:40:54;14.30;1.00
21255;DHT22;10785;50.674;17.954;2022-10-04T15:43:29;14.20;1.00
21255;DHT22;10785;50.674;17.954;2022-10-04T15:46:35;14.20;1.00
21255;DHT22;10785;50.674;17.954;2022-10-04T15:49:19;14.20;1.00
21255;DHT22;10785;50.674;17.954;2022-10-04T15:52:12;14.10;1.00
21255;DHT22;10785;50.674;17.954;2022-10-04T15:55:02;14.10;1.00
21255;DHT22;10785;50.674;17.954;2022-10-04T16:00:28;14.00;1.00
21255;DHT22;10785;50.674;17.954;2022-10-04T16:03:17;13.90;1.00
21255;DHT22;10785;50.674;17.954;2022-10-04T16:06:00;13.70;1.00
21255;DHT22;10785;50.674;17.954;2022-10-04T16:11:45;13.50;1.00
21255;DHT22;10785;50.674;17.954;2022-10-04T16:14:31;13.40;1.00
21255;DHT22;10785;50.674;17.954;2022-10-04T16:20:22;13.20;1.00
21255;DHT22;10785;50.674;17.954;2022-10-04T16:23:29;13.10;1.00
21255;DHT22;10785;50.674;17.954;2022-10-04T16:26:04;13.00;1.00
21255;DHT22;10785;50.674;17.954;2022-10-04T16:31:45;12.70;1.00
21255;DHT22;10785;50.674;17.954;2022-10-04T16:34:27;12.60;1.00
21255;DHT22;10785;50.674;17.954;2022-10-04T16:37:13;12.50;1.00
21255;DHT22;10785;50.674;17.954;2022-10-04T16:39:51;12.40;1.00
21255;DHT22;10785;50.674;17.954;2022-10-04T16:42:51;12.30;1.00
21255;DHT22;10785;50.674;17.954;2022-10-04T16:45:47;12.20;1.00
21255;DHT22;10785;50.674;17.954;2022-10-04T16:48:31;12.30;1.00
21255;DHT22;10785;50.674;17.954;2022-10-04T16:54:09;12.40;1.00
21255;DHT22;10785;50.674;17.954;2022-10-04T16:57:09;12.30;1.00
21255;DHT22;10785;50.674;17.954;2022-10-04T16:59:49;12.20;1.00
21255;DHT22;10785;50.674;17.954;2022-10-04T17:02:48;12.10;1.00
21255;DHT22;10785;50.674;17.954;2022-10-04T17:05:34;12.00;1.00
21255;DHT22;10785;50.674;17.954;2022-10-04T17:17:07;11.60;1.00
21255;DHT22;10785;50.674;17.954;2022-10-04T17:19:47;11.50;1.00
21255;DHT22;10785;50.674;17.954;2022-10-04T17:22:26;11.40;1.00
21255;DHT22;10785;50.674;17.954;2022-10-04T17:25:04;11.40;1.00
21255;DHT22;10785;50.674;17.954;2022-10-04T17:27:46;11.30;1.00
21255;DHT22;10785;50.674;17.954;2022-10-04T17:30:17;11.30;1.00
21255;DHT22;10785;50.674;17.954;2022-10-04T17:38:50;11.10;1.00
21255;DHT22;10785;50.674;17.954;2022-10-04T17:41:31;11.00;1.00
21255;DHT22;10785;50.674;17.954;2022-10-04T17:44:25;11.00;1.00
21255;DHT22;10785;50.674;17.954;2022-10-04T17:47:04;11.00;1.00
21255;DHT22;10785;50.674;17.954;2022-10-04T17:49:54;11.00;1.00
21255;DHT22;10785;50.674;17.954;2022-10-04T17:52:52;10.90;1.00
21255;DHT22;10785;50.674;17.954;2022-10-04T17:55:44;10.90;1.00
21255;DHT22;10785;50.674;17.954;2022-10-04T17:58:18;10.80;1.00
21255;DHT22;10785;50.674;17.954;2022-10-04T18:00:55;10.80;1.00
21255;DHT22;10785;50.674;17.954;2022-10-04T18:03:32;10.80;1.00
21255;DHT22;10785;50.674;17.954;2022-10-04T18:06:18;10.70;1.00
21255;DHT22;10785;50.674;17.954;2022-10-04T18:08:58;10.70;1.00
21255;DHT22;10785;50.674;17.954;2022-10-04T18:11:33;10.60;1.00
21255;DHT22;10785;50.674;17.954;2022-10-04T18:14:19;10.60;1.00
21255;DHT22;10785;50.674;17.954;2022-10-04T18:16:55;10.50;1.00
21255;DHT22;10785;50.674;17.954;2022-10-04T18:19:34;10.50;1.00
21255;DHT22;10785;50.674;17.954;2022-10-04T18:22:12;10.50;1.00
21255;DHT22;10785;50.674;17.954;2022-10-04T18:24:48;10.50;1.00
21255;DHT22;10785;50.674;17.954;2022-10-04T18:27:48;10.40;1.00
21255;DHT22;10785;50.674;17.954;2022-10-04T18:30:22;10.40;3.60
21255;DHT22;10785;50.674;17.954;2022-10-04T18:32:56;10.40;12.30
21255;DHT22;10785;50.674;17.954;2022-10-04T18:35:27;10.40;1.00
21255;DHT22;10785;50.674;17.954;2022-10-04T18:38:21;10.40;1.00
21255;DHT22;10785;50.674;17.954;2022-10-04T18:40:59;10.40;1.00
21255;DHT22;10785;50.674;17.954;2022-10-04T18:43:38;10.40;9.90
21255;DHT22;10785;50.674;17.954;2022-10-04T18:46:16;10.40;1.00
21255;DHT22;10785;50.674;17.954;2022-10-04T18:48:54;10.40;20.20
21255;DHT22;10785;50.674;17.954;2022-10-04T18:51:40;10.40;1.00
21255;DHT22;10785;50.674;17.954;2022-10-04T18:54:30;10.30;5.60
21255;DHT22;10785;50.674;17.954;2022-10-04T18:57:16;10.30;29.70
21255;DHT22;10785;50.674;17.954;2022-10-04T19:00:03;10.30;35.00
21255;DHT22;10785;50.674;17.954;2022-10-04T19:03:04;10.30;25.80
21255;DHT22;10785;50.674;17.954;2022-10-04T19:05:41;10.30;45.20
21255;DHT22;10785;50.674;17.954;2022-10-04T19:08:38;10.30;49.10
21255;DHT22;10785;50.674;17.954;2022-10-04T19:11:17;10.30;70.80
21255;DHT22;10785;50.674;17.954;2022-10-04T19:14:12;10.30;40.50
21255;DHT22;10785;50.674;17.954;2022-10-04T19:16:53;10.30;94.20
21255;DHT22;10785;50.674;17.954;2022-10-04T19:19:41;10.30;98.80
21255;DHT22;10785;50.674;17.954;2022-10-04T19:22:25;10.30;70.50
21255;DHT22;10785;50.674;17.954;2022-10-04T19:25:11;10.30;99.90
21255;DHT22;10785;50.674;17.954;2022-10-04T19:27:48;10.30;99.90
21255;DHT22;10785;50.674;17.954;2022-10-04T19:30:25;10.30;99.90